SKW1959 KLAS-KSNA
Flight info
| Callsign | SKW1959 |
|---|---|
| Flight time | 0h 45m |
| Altitude | 26000 |
| Route | RADYR2 SLVRR FEYLA DSNEE6 |
| Aircraft | CRJ7/M-SDFGIRWY/S |
Departure
| Time | 2026-05-07 22:52 |
|---|---|
| Airport | Harry Reid International Airport (KLAS) |
Arrival
| Time | 2026-05-07 23:37 |
|---|---|
| Airport | John Wayne Orange County International Airport (KSNA) |
| Time | Latitude | Longitude | Altitude | Speed | Heading |
|---|---|---|---|---|---|
| 2026-05-07 22:17 | 36.08284 | -115.14031 | 2187 ft | 0 kts | 117° |
| 2026-05-07 22:38 | 36.08289 | -115.14041 | 2186 ft | 3 kts | 117° |
| 2026-05-07 22:38 | 36.08299 | -115.14065 | 2188 ft | 3 kts | 117° |
| 2026-05-07 22:39 | 36.08308 | -115.14089 | 2190 ft | 3 kts | 117° |
| 2026-05-07 22:39 | 36.08324 | -115.14106 | 2188 ft | 3 kts | 181° |
| 2026-05-07 22:39 | 36.08335 | -115.14100 | 2188 ft | 0 kts | 230° |
| 2026-05-07 22:43 | 36.08333 | -115.14103 | 2190 ft | 3 kts | 230° |
| 2026-05-07 22:43 | 36.08310 | -115.14134 | 2187 ft | 6 kts | 226° |
| 2026-05-07 22:44 | 36.08273 | -115.14158 | 2186 ft | 7 kts | 188° |
| 2026-05-07 22:44 | 36.08223 | -115.14156 | 2186 ft | 8 kts | 177° |
| 2026-05-07 22:44 | 36.08168 | -115.14155 | 2188 ft | 9 kts | 179° |
| 2026-05-07 22:44 | 36.08104 | -115.14155 | 2187 ft | 10 kts | 181° |
| 2026-05-07 22:45 | 36.08031 | -115.14157 | 2190 ft | 11 kts | 179° |
| 2026-05-07 22:45 | 36.07959 | -115.14134 | 2187 ft | 12 kts | 140° |
| 2026-05-07 22:45 | 36.07900 | -115.14063 | 2187 ft | 13 kts | 136° |
| 2026-05-07 22:45 | 36.07838 | -115.13984 | 2186 ft | 13 kts | 119° |
| 2026-05-07 22:46 | 36.07828 | -115.13873 | 2189 ft | 13 kts | 92° |
| 2026-05-07 22:46 | 36.07823 | -115.13760 | 2187 ft | 14 kts | 94° |
| 2026-05-07 22:46 | 36.07826 | -115.13634 | 2188 ft | 15 kts | 87° |
| 2026-05-07 22:46 | 36.07821 | -115.13508 | 2187 ft | 16 kts | 92° |
| 2026-05-07 22:47 | 36.07827 | -115.13373 | 2189 ft | 16 kts | 91° |
| 2026-05-07 22:47 | 36.07827 | -115.13236 | 2187 ft | 17 kts | 86° |
| 2026-05-07 22:47 | 36.07828 | -115.13086 | 2190 ft | 18 kts | 90° |
| 2026-05-07 22:47 | 36.07828 | -115.12935 | 2189 ft | 18 kts | 90° |
| 2026-05-07 22:48 | 36.07828 | -115.12776 | 2190 ft | 19 kts | 90° |
| 2026-05-07 22:48 | 36.07828 | -115.12613 | 2189 ft | 20 kts | 90° |
| 2026-05-07 22:48 | 36.07829 | -115.12441 | 2188 ft | 20 kts | 89° |
| 2026-05-07 22:48 | 36.07827 | -115.12275 | 2190 ft | 18 kts | 102° |
| 2026-05-07 22:49 | 36.07759 | -115.12164 | 2186 ft | 10 kts | 130° |
| 2026-05-07 22:49 | 36.07754 | -115.12156 | 2188 ft | 0 kts | 129° |
| 2026-05-07 22:49 | 36.07753 | -115.12154 | 2188 ft | 0 kts | 129° |
| 2026-05-07 22:49 | 36.07730 | -115.12131 | 2187 ft | 6 kts | 152° |
| 2026-05-07 22:50 | 36.07693 | -115.12122 | 2189 ft | 5 kts | 176° |
| 2026-05-07 22:50 | 36.07657 | -115.12120 | 2190 ft | 6 kts | 181° |
| 2026-05-07 22:50 | 36.07640 | -115.12141 | 2190 ft | 0 kts | 263° |
| 2026-05-07 22:51 | 36.07639 | -115.12175 | 2191 ft | 21 kts | 269° |
| 2026-05-07 22:52 | 36.07642 | -115.12600 | 2187 ft | 81 kts | 269° |
| 2026-05-07 22:52 | 36.07642 | -115.13436 | 2187 ft | 129 kts | 270° |
| 2026-05-07 22:52 | 36.07659 | -115.14595 | 2283 ft | 156 kts | 271° |
| 2026-05-07 22:52 | 36.07622 | -115.15889 | 2841 ft | 156 kts | 268° |
| 2026-05-07 22:53 | 36.07568 | -115.17221 | 3217 ft | 168 kts | 264° |
| 2026-05-07 22:53 | 36.07419 | -115.18740 | 3542 ft | 185 kts | 264° |
| 2026-05-07 22:53 | 36.07261 | -115.20385 | 3721 ft | 213 kts | 264° |
| 2026-05-07 22:53 | 36.07108 | -115.22207 | 4121 ft | 232 kts | 264° |
| 2026-05-07 22:54 | 36.06900 | -115.24240 | 4547 ft | 250 kts | 253° |
| 2026-05-07 22:54 | 36.05979 | -115.26022 | 4942 ft | 268 kts | 220° |
| 2026-05-07 22:54 | 36.04381 | -115.27222 | 5561 ft | 275 kts | 205° |
| 2026-05-07 22:54 | 36.02691 | -115.28044 | 6302 ft | 278 kts | 200° |
| 2026-05-07 22:55 | 36.00863 | -115.28813 | 7030 ft | 281 kts | 199° |
| 2026-05-07 22:55 | 35.99009 | -115.29544 | 7708 ft | 285 kts | 197° |
| 2026-05-07 22:55 | 35.97075 | -115.30079 | 8345 ft | 290 kts | 193° |
| 2026-05-07 22:55 | 35.95134 | -115.30505 | 9007 ft | 293 kts | 192° |
| 2026-05-07 22:56 | 35.93159 | -115.30916 | 9648 ft | 297 kts | 192° |
| 2026-05-07 22:56 | 35.91130 | -115.31343 | 10228 ft | 301 kts | 193° |
| 2026-05-07 22:56 | 35.89034 | -115.31846 | 10392 ft | 321 kts | 194° |
| 2026-05-07 22:56 | 35.86859 | -115.32390 | 10555 ft | 339 kts | 193° |
| 2026-05-07 22:57 | 35.84557 | -115.32973 | 10827 ft | 351 kts | 193° |
| 2026-05-07 22:57 | 35.82214 | -115.33572 | 11406 ft | 352 kts | 192° |
| 2026-05-07 22:57 | 35.79832 | -115.34170 | 11944 ft | 356 kts | 192° |
| 2026-05-07 22:57 | 35.77526 | -115.34730 | 12409 ft | 360 kts | 191° |
| 2026-05-07 22:58 | 35.75125 | -115.35306 | 12937 ft | 362 kts | 191° |
| 2026-05-07 22:58 | 35.72693 | -115.35891 | 13429 ft | 366 kts | 191° |
| 2026-05-07 22:58 | 35.70207 | -115.36497 | 13896 ft | 369 kts | 191° |
| 2026-05-07 22:58 | 35.67769 | -115.37092 | 14291 ft | 372 kts | 191° |
| 2026-05-07 22:59 | 35.65307 | -115.37695 | 14690 ft | 375 kts | 191° |
| 2026-05-07 22:59 | 35.62761 | -115.38329 | 15097 ft | 378 kts | 193° |
| 2026-05-07 22:59 | 35.60427 | -115.39570 | 15449 ft | 381 kts | 215° |
| 2026-05-07 22:59 | 35.58500 | -115.41635 | 15831 ft | 382 kts | 227° |
| 2026-05-07 23:00 | 35.56826 | -115.43952 | 16173 ft | 384 kts | 231° |
| 2026-05-07 23:00 | 35.55168 | -115.46383 | 16533 ft | 387 kts | 231° |
| 2026-05-07 23:00 | 35.53493 | -115.48822 | 16894 ft | 389 kts | 231° |
| 2026-05-07 23:00 | 35.51765 | -115.51231 | 17246 ft | 392 kts | 229° |
| 2026-05-07 23:01 | 35.49998 | -115.53602 | 17605 ft | 394 kts | 229° |
| 2026-05-07 23:01 | 35.48229 | -115.55980 | 17905 ft | 397 kts | 229° |
| 2026-05-07 23:01 | 35.46461 | -115.58365 | 18236 ft | 399 kts | 229° |
| 2026-05-07 23:01 | 35.44669 | -115.60782 | 18519 ft | 401 kts | 229° |
| 2026-05-07 23:02 | 35.42916 | -115.63145 | 18778 ft | 403 kts | 229° |
| 2026-05-07 23:02 | 35.41113 | -115.65563 | 19038 ft | 404 kts | 229° |
| 2026-05-07 23:02 | 35.39276 | -115.68030 | 19302 ft | 406 kts | 229° |
| 2026-05-07 23:02 | 35.37437 | -115.70510 | 19560 ft | 408 kts | 229° |
| 2026-05-07 23:03 | 35.35593 | -115.72988 | 19806 ft | 410 kts | 229° |
| 2026-05-07 23:03 | 35.33759 | -115.75431 | 20051 ft | 412 kts | 229° |
| 2026-05-07 23:03 | 35.31884 | -115.77923 | 20276 ft | 413 kts | 229° |
| 2026-05-07 23:03 | 35.30012 | -115.80431 | 20482 ft | 416 kts | 229° |
| 2026-05-07 23:04 | 35.28186 | -115.82876 | 20696 ft | 417 kts | 229° |
| 2026-05-07 23:04 | 35.26358 | -115.85316 | 20922 ft | 418 kts | 229° |
| 2026-05-07 23:04 | 35.24469 | -115.87839 | 21132 ft | 420 kts | 229° |
| 2026-05-07 23:04 | 35.22595 | -115.90323 | 21323 ft | 422 kts | 228° |
| 2026-05-07 23:05 | 35.20630 | -115.92820 | 21530 ft | 424 kts | 227° |
| 2026-05-07 23:05 | 35.18640 | -115.95316 | 21731 ft | 425 kts | 227° |
| 2026-05-07 23:05 | 35.17328 | -115.96975 | 21851 ft | 426 kts | 227° |
| 2026-05-07 23:05 | 35.14700 | -116.00284 | 22110 ft | 427 kts | 227° |
| 2026-05-07 23:06 | 35.12728 | -116.02772 | 22271 ft | 429 kts | 227° |
| 2026-05-07 23:06 | 35.10752 | -116.05265 | 22462 ft | 430 kts | 227° |
| 2026-05-07 23:06 | 35.09389 | -116.06975 | 22582 ft | 431 kts | 227° |
| 2026-05-07 23:06 | 35.07410 | -116.09464 | 22772 ft | 432 kts | 227° |
| 2026-05-07 23:07 | 35.04690 | -116.12888 | 23022 ft | 434 kts | 227° |
| 2026-05-07 23:07 | 35.03352 | -116.14567 | 23139 ft | 435 kts | 227° |
| 2026-05-07 23:07 | 35.01337 | -116.17096 | 23315 ft | 437 kts | 227° |
| 2026-05-07 23:07 | 34.99293 | -116.19662 | 23477 ft | 438 kts | 227° |
| 2026-05-07 23:08 | 34.97255 | -116.22216 | 23633 ft | 439 kts | 227° |
| 2026-05-07 23:08 | 34.95253 | -116.24718 | 23783 ft | 440 kts | 227° |
| 2026-05-07 23:08 | 34.93204 | -116.27283 | 23931 ft | 440 kts | 227° |
| 2026-05-07 23:08 | 34.91144 | -116.29868 | 24087 ft | 441 kts | 227° |
| 2026-05-07 23:09 | 34.89087 | -116.32436 | 24222 ft | 442 kts | 227° |
| 2026-05-07 23:09 | 34.87020 | -116.35020 | 24364 ft | 443 kts | 227° |
| 2026-05-07 23:09 | 34.84943 | -116.37612 | 24498 ft | 443 kts | 227° |
| 2026-05-07 23:09 | 34.82932 | -116.40125 | 24625 ft | 444 kts | 227° |
| 2026-05-07 23:10 | 34.80891 | -116.42720 | 24735 ft | 445 kts | 227° |
| 2026-05-07 23:10 | 34.78878 | -116.45277 | 24864 ft | 446 kts | 227° |
| 2026-05-07 23:10 | 34.76812 | -116.47902 | 24984 ft | 447 kts | 227° |
| 2026-05-07 23:10 | 34.74754 | -116.50522 | 25113 ft | 448 kts | 227° |
| 2026-05-07 23:11 | 34.72694 | -116.53137 | 25237 ft | 449 kts | 227° |
| 2026-05-07 23:11 | 34.70697 | -116.55665 | 25349 ft | 449 kts | 227° |
| 2026-05-07 23:11 | 34.68577 | -116.58310 | 25478 ft | 450 kts | 226° |
| 2026-05-07 23:11 | 34.66400 | -116.60810 | 25577 ft | 451 kts | 223° |
| 2026-05-07 23:12 | 34.64139 | -116.63212 | 25671 ft | 453 kts | 221° |
| 2026-05-07 23:12 | 34.61889 | -116.65556 | 25798 ft | 453 kts | 221° |
| 2026-05-07 23:12 | 34.59600 | -116.67955 | 25871 ft | 454 kts | 222° |
| 2026-05-07 23:12 | 34.57363 | -116.70371 | 25902 ft | 456 kts | 223° |
| 2026-05-07 23:13 | 34.55083 | -116.72832 | 25919 ft | 459 kts | 222° |
| 2026-05-07 23:13 | 34.52827 | -116.75263 | 25946 ft | 462 kts | 223° |
| 2026-05-07 23:13 | 34.50549 | -116.77718 | 25795 ft | 469 kts | 222° |
| 2026-05-07 23:13 | 34.48232 | -116.80219 | 25653 ft | 475 kts | 222° |
| 2026-05-07 23:14 | 34.45849 | -116.82793 | 25287 ft | 480 kts | 223° |
| 2026-05-07 23:14 | 34.43451 | -116.85373 | 24911 ft | 478 kts | 222° |
| 2026-05-07 23:14 | 34.41131 | -116.87867 | 24567 ft | 468 kts | 223° |
| 2026-05-07 23:14 | 34.38815 | -116.90353 | 24199 ft | 452 kts | 222° |
| 2026-05-07 23:15 | 34.36592 | -116.92734 | 23824 ft | 439 kts | 222° |
| 2026-05-07 23:15 | 34.34457 | -116.95023 | 23435 ft | 427 kts | 222° |
| 2026-05-07 23:15 | 34.32413 | -116.97215 | 23023 ft | 418 kts | 222° |
| 2026-05-07 23:15 | 34.30358 | -116.99416 | 22585 ft | 409 kts | 222° |
| 2026-05-07 23:16 | 34.28307 | -117.01612 | 22157 ft | 401 kts | 222° |
| 2026-05-07 23:16 | 34.26262 | -117.03717 | 21738 ft | 395 kts | 219° |
| 2026-05-07 23:16 | 34.24242 | -117.05791 | 21327 ft | 389 kts | 223° |
| 2026-05-07 23:16 | 34.22344 | -117.07944 | 20904 ft | 384 kts | 224° |
| 2026-05-07 23:17 | 34.20350 | -117.09824 | 20493 ft | 380 kts | 212° |
| 2026-05-07 23:17 | 34.18117 | -117.11341 | 20082 ft | 376 kts | 207° |
| 2026-05-07 23:17 | 34.15927 | -117.12717 | 19841 ft | 368 kts | 207° |
| 2026-05-07 23:17 | 34.13750 | -117.14097 | 19690 ft | 358 kts | 208° |
| 2026-05-07 23:18 | 34.11652 | -117.15504 | 19382 ft | 363 kts | 210° |
| 2026-05-07 23:18 | 34.09553 | -117.16986 | 19092 ft | 375 kts | 210° |
| 2026-05-07 23:18 | 34.07264 | -117.18607 | 18805 ft | 390 kts | 210° |
| 2026-05-07 23:18 | 34.04998 | -117.20220 | 18612 ft | 400 kts | 210° |
| 2026-05-07 23:19 | 34.02716 | -117.21838 | 18526 ft | 406 kts | 210° |
| 2026-05-07 23:19 | 34.00312 | -117.23518 | 18468 ft | 410 kts | 210° |
| 2026-05-07 23:19 | 33.97908 | -117.25188 | 18406 ft | 412 kts | 210° |
| 2026-05-07 23:19 | 33.95514 | -117.26884 | 17980 ft | 425 kts | 210° |
| 2026-05-07 23:20 | 33.93050 | -117.28656 | 17529 ft | 436 kts | 214° |
| 2026-05-07 23:20 | 33.90954 | -117.31086 | 17095 ft | 444 kts | 232° |
| 2026-05-07 23:20 | 33.89204 | -117.33909 | 16712 ft | 426 kts | 234° |
| 2026-05-07 23:20 | 33.87572 | -117.36572 | 16405 ft | 409 kts | 233° |
| 2026-05-07 23:21 | 33.85930 | -117.39072 | 16105 ft | 395 kts | 231° |
| 2026-05-07 23:21 | 33.84281 | -117.41396 | 15789 ft | 384 kts | 229° |
| 2026-05-07 23:21 | 33.82589 | -117.43725 | 15480 ft | 374 kts | 230° |
| 2026-05-07 23:21 | 33.81240 | -117.46163 | 15167 ft | 363 kts | 245° |
| 2026-05-07 23:22 | 33.80321 | -117.48839 | 14850 ft | 354 kts | 252° |
| 2026-05-07 23:22 | 33.79561 | -117.51485 | 14565 ft | 348 kts | 252° |
| 2026-05-07 23:22 | 33.78984 | -117.54169 | 14266 ft | 339 kts | 268° |
| 2026-05-07 23:22 | 33.79322 | -117.56762 | 13992 ft | 328 kts | 296° |
| 2026-05-07 23:23 | 33.80561 | -117.58842 | 13718 ft | 316 kts | 323° |
| 2026-05-07 23:23 | 33.82450 | -117.59952 | 13421 ft | 304 kts | 351° |
| 2026-05-07 23:23 | 33.84462 | -117.60211 | 13143 ft | 299 kts | 359° |
| 2026-05-07 23:23 | 33.86492 | -117.60323 | 12846 ft | 296 kts | 0° |
| 2026-05-07 23:24 | 33.88508 | -117.60373 | 12530 ft | 293 kts | 1° |
| 2026-05-07 23:24 | 33.90488 | -117.60391 | 12213 ft | 291 kts | 1° |
| 2026-05-07 23:24 | 33.92418 | -117.60387 | 11907 ft | 289 kts | 1° |
| 2026-05-07 23:24 | 33.94389 | -117.60374 | 11605 ft | 287 kts | 1° |
| 2026-05-07 23:25 | 33.96350 | -117.60352 | 11298 ft | 285 kts | 1° |
| 2026-05-07 23:25 | 33.98287 | -117.60479 | 10974 ft | 283 kts | 346° |
| 2026-05-07 23:25 | 33.99991 | -117.61423 | 10667 ft | 283 kts | 322° |
| 2026-05-07 23:25 | 34.01065 | -117.63267 | 10379 ft | 286 kts | 292° |
| 2026-05-07 23:26 | 34.01203 | -117.65592 | 10106 ft | 291 kts | 261° |
| 2026-05-07 23:26 | 34.00444 | -117.67796 | 9837 ft | 292 kts | 245° |
| 2026-05-07 23:26 | 33.99500 | -117.69856 | 9466 ft | 292 kts | 243° |
| 2026-05-07 23:26 | 33.98484 | -117.71955 | 9080 ft | 291 kts | 242° |
| 2026-05-07 23:27 | 33.96500 | -117.75946 | 8341 ft | 288 kts | 241° |
| 2026-05-07 23:27 | 33.95517 | -117.77923 | 7975 ft | 286 kts | 242° |
| 2026-05-07 23:27 | 33.94515 | -117.79913 | 7599 ft | 280 kts | 242° |
| 2026-05-07 23:28 | 33.93569 | -117.81812 | 7231 ft | 269 kts | 242° |
| 2026-05-07 23:28 | 33.92668 | -117.83657 | 6789 ft | 263 kts | 241° |
| 2026-05-07 23:28 | 33.91770 | -117.85464 | 6267 ft | 259 kts | 241° |
| 2026-05-07 23:28 | 33.90854 | -117.87285 | 5777 ft | 252 kts | 241° |
| 2026-05-07 23:29 | 33.89996 | -117.88999 | 5441 ft | 242 kts | 241° |
| 2026-05-07 23:29 | 33.89168 | -117.90646 | 5250 ft | 227 kts | 241° |
| 2026-05-07 23:29 | 33.88415 | -117.92135 | 5141 ft | 211 kts | 242° |
| 2026-05-07 23:29 | 33.87498 | -117.93435 | 4995 ft | 203 kts | 212° |
| 2026-05-07 23:30 | 33.86162 | -117.93661 | 4876 ft | 202 kts | 167° |
| 2026-05-07 23:30 | 33.85029 | -117.92676 | 4787 ft | 212 kts | 121° |
| 2026-05-07 23:30 | 33.84703 | -117.91013 | 4743 ft | 213 kts | 78° |
| 2026-05-07 23:30 | 33.85320 | -117.89513 | 4628 ft | 208 kts | 38° |
| 2026-05-07 23:31 | 33.86411 | -117.88411 | 4480 ft | 215 kts | 33° |
| 2026-05-07 23:31 | 33.87596 | -117.87313 | 4316 ft | 223 kts | 32° |
| 2026-05-07 23:31 | 33.88806 | -117.86240 | 4078 ft | 229 kts | 31° |
| 2026-05-07 23:31 | 33.89977 | -117.84999 | 3765 ft | 227 kts | 54° |
| 2026-05-07 23:32 | 33.90479 | -117.83240 | 3461 ft | 228 kts | 85° |
| 2026-05-07 23:32 | 33.90127 | -117.81497 | 3240 ft | 222 kts | 117° |
| 2026-05-07 23:32 | 33.89434 | -117.79953 | 3141 ft | 214 kts | 119° |
| 2026-05-07 23:32 | 33.88636 | -117.78523 | 3051 ft | 203 kts | 141° |
| 2026-05-07 23:33 | 33.87452 | -117.77939 | 3008 ft | 180 kts | 176° |
| 2026-05-07 23:33 | 33.86250 | -117.77861 | 2959 ft | 178 kts | 194° |
| 2026-05-07 23:33 | 33.85006 | -117.78416 | 3022 ft | 218 kts | 208° |
| 2026-05-07 23:33 | 33.83526 | -117.79257 | 3089 ft | 259 kts | 206° |
| 2026-05-07 23:34 | 33.81800 | -117.80018 | 3126 ft | 263 kts | 201° |
| 2026-05-07 23:34 | 33.80113 | -117.80596 | 2795 ft | 247 kts | 197° |
| 2026-05-07 23:34 | 33.78574 | -117.81119 | 2468 ft | 232 kts | 198° |
| 2026-05-07 23:34 | 33.77113 | -117.81640 | 2061 ft | 212 kts | 197° |
| 2026-05-07 23:35 | 33.75805 | -117.82111 | 1678 ft | 193 kts | 199° |
| 2026-05-07 23:35 | 33.74594 | -117.82556 | 1461 ft | 169 kts | 201° |
| 2026-05-07 23:35 | 33.73605 | -117.83039 | 1250 ft | 152 kts | 204° |
| 2026-05-07 23:35 | 33.72667 | -117.83591 | 901 ft | 146 kts | 205° |
| 2026-05-07 23:36 | 33.71861 | -117.84152 | 760 ft | 122 kts | 209° |
| 2026-05-07 23:36 | 33.71053 | -117.84684 | 697 ft | 147 kts | 207° |
| 2026-05-07 23:36 | 33.70215 | -117.85224 | 626 ft | 134 kts | 207° |
| 2026-05-07 23:36 | 33.69423 | -117.85707 | 357 ft | 124 kts | 207° |
| 2026-05-07 23:37 | 33.68633 | -117.86217 | 195 ft | 136 kts | 210° |
| 2026-05-07 23:37 | 33.67843 | -117.86713 | 51 ft | 123 kts | 208° |
| 2026-05-07 23:37 | 33.67281 | -117.87068 | 53 ft | 60 kts | 206° |
| 2026-05-07 23:37 | 33.67067 | -117.87205 | 54 ft | 19 kts | 206° |
| 2026-05-07 23:38 | 33.66967 | -117.87208 | 57 ft | 12 kts | 159° |
| 2026-05-07 23:38 | 33.66916 | -117.87157 | 57 ft | 9 kts | 119° |
| 2026-05-07 23:38 | 33.66913 | -117.87103 | 57 ft | 7 kts | 61° |
| 2026-05-07 23:38 | 33.66953 | -117.87053 | 55 ft | 9 kts | 39° |
| 2026-05-07 23:39 | 33.67010 | -117.86996 | 54 ft | 12 kts | 40° |
| 2026-05-07 23:39 | 33.67079 | -117.86924 | 52 ft | 14 kts | 41° |
| 2026-05-07 23:39 | 33.67159 | -117.86837 | 55 ft | 17 kts | 44° |
| 2026-05-07 23:39 | 33.67249 | -117.86748 | 54 ft | 17 kts | 26° |
| 2026-05-07 23:40 | 33.67361 | -117.86679 | 53 ft | 18 kts | 23° |
| 2026-05-07 23:40 | 33.67468 | -117.86611 | 50 ft | 12 kts | 24° |
| 2026-05-07 23:40 | 33.67540 | -117.86566 | 51 ft | 7 kts | 28° |
| 2026-05-07 23:40 | 33.67553 | -117.86528 | 53 ft | 5 kts | 114° |
| 2026-05-07 23:41 | 33.67539 | -117.86494 | 51 ft | 2 kts | 117° |
| 2026-05-07 23:41 | 33.67538 | -117.86491 | 52 ft | 0 kts | 116° |